createdAt,value
2018-04-13T00:00:32.673Z,73.47
2018-04-13T00:03:00.913Z,73.49
2018-04-13T00:05:28.674Z,73.63
2018-04-13T00:07:56.245Z,73.66
2018-04-13T00:10:23.789Z,73.74
2018-04-13T00:12:51.317Z,73.78
2018-04-13T00:15:18.925Z,73.83
2018-04-13T00:17:46.585Z,73.92
2018-04-13T00:20:14.251Z,73.98
2018-04-13T00:22:41.907Z,74.06
2018-04-13T00:25:09.528Z,74.10
2018-04-13T00:27:37.071Z,74.05
2018-04-13T00:30:04.604Z,74.08
2018-04-13T00:32:32.252Z,74.08
2018-04-13T00:35:01.927Z,74.09
2018-04-13T00:37:31.908Z,74.12
2018-04-13T00:40:00.534Z,74.10
2018-04-13T00:42:28.072Z,74.10
2018-04-13T00:44:55.632Z,74.19
2018-04-13T00:47:23.196Z,74.18
2018-04-13T00:49:50.880Z,74.16
2018-04-13T00:52:18.510Z,74.21
2018-04-13T00:54:46.195Z,74.34
2018-04-13T00:57:14.808Z,74.38
2018-04-13T00:59:42.530Z,74.41
2018-04-13T01:02:10.097Z,74.50
2018-04-13T01:04:37.631Z,74.57
2018-04-13T01:07:05.312Z,74.58
2018-04-13T01:09:33.748Z,74.58
2018-04-13T01:12:01.309Z,74.57
2018-04-13T01:14:29.520Z,74.57
2018-04-13T01:16:57.068Z,74.56
2018-04-13T01:19:24.604Z,74.56
2018-04-13T01:21:52.143Z,74.51
2018-04-13T01:24:19.783Z,74.50
2018-04-13T01:26:48.131Z,74.52
2018-04-13T01:29:16.984Z,74.55
2018-04-13T01:31:45.303Z,74.58
2018-04-13T01:34:12.911Z,74.55
2018-04-13T01:36:40.521Z,74.61
2018-04-13T01:39:08.184Z,74.63
2018-04-13T01:41:35.816Z,74.62
2018-04-13T01:44:03.920Z,74.66
2018-04-13T01:46:32.364Z,74.66
2018-04-13T01:49:00.791Z,74.68
2018-04-13T01:51:28.345Z,74.75
2018-04-13T01:53:55.863Z,74.85
2018-04-13T01:56:23.416Z,74.87
2018-04-13T01:58:52.091Z,74.87
2018-04-13T02:01:20.953Z,74.86
2018-04-13T02:03:51.899Z,74.87
2018-04-13T02:06:25.979Z,74.88
2018-04-13T02:08:57.073Z,74.87
2018-04-13T02:11:24.652Z,74.92
2018-04-13T02:13:52.307Z,74.97
2018-04-13T02:16:19.987Z,75.02
2018-04-13T02:18:48.516Z,75.04
2018-04-13T02:21:17.842Z,75.04
2018-04-13T02:23:45.435Z,75.01
2018-04-13T02:26:12.969Z,74.97
2018-04-13T02:28:40.532Z,74.96
2018-04-13T02:31:08.059Z,74.93
2018-04-13T02:33:35.919Z,74.93
2018-04-13T02:36:03.952Z,74.97
2018-04-13T02:38:32.502Z,75.00
2018-04-13T02:41:00.786Z,75.04
2018-04-13T02:43:28.343Z,75.09
2018-04-13T02:45:55.888Z,75.06
2018-04-13T02:48:23.514Z,75.02
2018-04-13T02:50:51.124Z,75.02
2018-04-13T02:53:18.734Z,75.02
2018-04-13T02:55:46.467Z,75.01
2018-04-13T02:58:14.211Z,75.00
2018-04-13T03:00:41.860Z,75.07
2018-04-13T03:03:09.396Z,75.10
2018-04-13T03:05:36.941Z,75.12
2018-04-13T03:08:05.512Z,75.15
2018-04-13T03:10:33.876Z,75.20
2018-04-13T03:13:01.461Z,75.26
2018-04-13T03:15:29.950Z,75.25
2018-04-13T03:17:57.515Z,75.22
2018-04-13T03:20:25.064Z,75.23
2018-04-13T03:22:52.580Z,75.23
2018-04-13T03:25:21.028Z,75.26
2018-04-13T03:27:49.989Z,75.28
2018-04-13T03:30:17.584Z,75.32
2018-04-13T03:32:45.874Z,75.35
2018-04-13T03:35:13.391Z,75.35
2018-04-13T03:37:40.973Z,75.38
2018-04-13T03:40:08.523Z,75.45
2018-04-13T03:42:36.963Z,75.48
2018-04-13T03:45:06.229Z,75.48
2018-04-13T03:47:34.608Z,75.50
2018-04-13T03:50:03.902Z,75.50
2018-04-13T03:52:31.523Z,75.52
2018-04-13T03:54:59.093Z,75.62
2018-04-13T03:57:26.739Z,75.69
2018-04-13T03:59:54.377Z,75.80
2018-04-13T04:02:22.130Z,75.93
2018-04-13T04:04:51.851Z,76.01
2018-04-13T04:07:20.397Z,76.10
2018-04-13T04:09:48.019Z,76.15
2018-04-13T04:12:15.583Z,76.27
2018-04-13T04:14:43.150Z,76.28
2018-04-13T04:17:10.805Z,76.22
2018-04-13T04:19:52.122Z,76.20
2018-04-13T04:22:32.001Z,76.34
2018-04-13T04:25:11.458Z,76.55
2018-04-13T04:27:38.980Z,76.75
2018-04-13T04:30:06.580Z,76.88
2018-04-13T04:32:34.192Z,76.96
2018-04-13T04:35:01.830Z,76.94
2018-04-13T04:37:30.383Z,76.88
2018-04-13T04:39:58.064Z,76.92
2018-04-13T04:42:25.775Z,76.92
2018-04-13T04:44:53.331Z,77.03
2018-04-13T04:47:22.540Z,77.19
2018-04-13T04:49:50.153Z,77.38
2018-04-13T04:52:17.761Z,77.44
2018-04-13T04:54:46.408Z,77.45
2018-04-13T04:57:15.465Z,77.53
2018-04-13T04:59:43.075Z,77.58
2018-04-13T05:02:10.603Z,77.59
2018-04-13T05:04:38.124Z,77.58
2018-04-13T05:07:05.796Z,77.55
2018-04-13T05:09:33.384Z,77.58
2018-04-13T05:12:02.422Z,77.67
2018-04-13T05:14:35.999Z,77.77
2018-04-13T05:17:03.551Z,77.82
2018-04-13T05:19:31.087Z,77.84
2018-04-13T05:21:58.616Z,77.83
2018-04-13T05:24:26.180Z,77.83
2018-04-13T05:26:53.772Z,77.89
2018-04-13T05:29:21.439Z,77.97
2018-04-13T05:31:49.652Z,78.22
2018-04-13T05:34:17.155Z,78.34
2018-04-13T05:36:44.679Z,78.47
2018-04-13T05:39:12.199Z,78.46
2018-04-13T05:41:39.763Z,78.45
2018-04-13T05:44:08.600Z,78.42
2018-04-13T05:46:36.942Z,78.36
2018-04-13T05:49:06.503Z,78.32
2018-04-13T05:51:34.693Z,78.31
2018-04-13T05:54:02.252Z,78.32
2018-04-13T05:56:29.813Z,78.31
2018-04-13T05:58:57.456Z,78.33
2018-04-13T06:01:26.241Z,78.33
2018-04-13T06:03:55.000Z,78.41
2018-04-13T06:06:24.878Z,78.48
2018-04-13T06:08:52.409Z,78.53
2018-04-13T06:11:19.941Z,78.53
2018-04-13T06:13:47.467Z,78.56
2018-04-13T06:16:15.072Z,78.54
2018-04-13T06:18:43.593Z,78.58
2018-04-13T06:21:12.088Z,78.60
2018-04-13T06:23:40.962Z,78.55
2018-04-13T06:26:08.728Z,78.52
2018-04-13T06:28:36.228Z,78.49
2018-04-13T06:31:03.834Z,78.43
2018-04-13T06:33:31.399Z,78.44
2018-04-13T06:35:59.829Z,78.46
2018-04-13T06:38:28.611Z,78.46
2018-04-13T06:40:56.434Z,78.48
2018-04-13T06:43:24.010Z,78.56
2018-04-13T06:45:51.532Z,78.58
2018-04-13T06:48:19.043Z,78.58
2018-04-13T06:50:46.698Z,78.58
2018-04-13T06:53:14.340Z,78.60
2018-04-13T06:55:42.839Z,78.64
2018-04-13T06:58:10.667Z,78.63
2018-04-13T07:00:38.323Z,78.61
2018-04-13T07:03:05.905Z,78.65
2018-04-13T07:05:33.529Z,78.74
2018-04-13T07:08:06.971Z,78.91
2018-04-13T07:10:39.342Z,79.06
2018-04-13T07:13:08.786Z,79.09
2018-04-13T07:15:40.604Z,79.07
2018-04-13T07:18:08.987Z,79.10
2018-04-13T07:20:36.639Z,79.04
2018-04-13T07:23:04.179Z,79.05
2018-04-13T07:25:31.780Z,79.08
2018-04-13T07:28:01.777Z,79.20
2018-04-13T07:30:32.051Z,79.65
2018-04-13T07:33:00.553Z,79.74
2018-04-13T07:35:28.088Z,79.81
2018-04-13T07:37:55.658Z,79.95
2018-04-13T07:40:23.255Z,79.94
2018-04-13T07:42:50.848Z,79.91
2018-04-13T07:45:20.281Z,79.85
2018-04-13T07:47:48.193Z,79.82
2018-04-13T07:50:16.920Z,79.86
2018-04-13T07:52:44.147Z,79.91
2018-04-13T07:55:11.695Z,79.88
2018-04-13T07:57:39.220Z,79.92
2018-04-13T08:00:06.800Z,79.82
2018-04-13T08:02:34.825Z,79.81
2018-04-13T08:05:02.798Z,79.67
2018-04-13T08:07:30.513Z,79.62
2018-04-13T08:09:58.990Z,79.59
2018-04-13T08:12:26.544Z,79.52
2018-04-13T08:14:54.092Z,79.44
2018-04-13T08:17:21.713Z,79.33
2018-04-13T08:19:49.848Z,79.25
2018-04-13T08:22:20.380Z,79.23
2018-04-13T08:24:53.059Z,79.17
2018-04-13T08:27:20.623Z,79.14
2018-04-13T08:29:48.212Z,79.08
2018-04-13T08:32:15.732Z,79.01
2018-04-13T08:34:43.322Z,78.90
2018-04-13T08:37:13.310Z,78.81
2018-04-13T08:42:46.006Z,78.63
2018-04-13T08:45:13.586Z,78.58
2018-04-13T08:47:41.155Z,78.55
2018-04-13T08:50:08.711Z,78.45
2018-04-13T08:52:42.905Z,78.36
2018-04-13T08:58:09.784Z,78.17
2018-04-13T09:00:40.632Z,78.11
2018-04-13T09:03:08.166Z,78.04
2018-04-13T09:05:35.673Z,77.94
2018-04-13T09:08:03.246Z,77.82
2018-04-13T09:10:32.952Z,77.84
2018-04-13T09:18:19.698Z,77.51
2018-04-13T09:20:47.296Z,77.32
2018-04-13T09:23:14.854Z,77.08
2018-04-13T09:25:42.431Z,77.03
2018-04-13T09:28:14.248Z,76.60
2018-04-13T09:30:46.133Z,76.36
2018-04-13T09:33:15.788Z,76.21
2018-04-13T09:35:43.359Z,76.23
2018-04-13T09:38:10.924Z,75.88
2018-04-13T09:40:38.633Z,75.53
2018-04-13T09:43:06.295Z,74.86
2018-04-13T09:45:33.980Z,74.89
2018-04-13T09:48:04.484Z,74.67
2018-04-13T09:50:36.250Z,72.62
2018-04-13T09:53:03.775Z,72.72
2018-04-13T09:55:31.324Z,72.14
2018-04-13T09:57:58.864Z,71.96
2018-04-13T10:00:30.595Z,72.17
2018-04-13T10:03:04.488Z,72.27
2018-04-13T10:05:33.097Z,72.01
2018-04-13T10:08:05.195Z,71.73
2018-04-13T10:10:32.747Z,71.38
2018-04-13T10:13:00.357Z,71.36
2018-04-13T10:15:27.984Z,71.77
2018-04-13T10:17:55.611Z,71.88
2018-04-13T10:20:24.377Z,71.70
2018-04-13T10:22:56.072Z,71.75
2018-04-13T10:25:23.741Z,71.38
2018-04-13T10:27:51.251Z,71.23
2018-04-13T10:30:18.898Z,70.47
2018-04-13T10:32:46.419Z,70.90
2018-04-13T10:35:13.988Z,70.50
2018-04-13T10:37:45.830Z,70.05
2018-04-13T10:42:49.060Z,68.96
2018-04-13T10:45:16.615Z,68.04
2018-04-13T10:47:44.246Z,67.33
2018-04-13T10:50:11.804Z,67.23
2018-04-13T10:52:39.432Z,67.97
2018-04-13T10:55:12.074Z,68.11
2018-04-13T10:57:48.355Z,68.75
2018-04-13T11:00:17.818Z,69.11
2018-04-13T11:02:45.459Z,69.21
2018-04-13T11:05:13.121Z,69.29
2018-04-13T11:07:40.667Z,69.23
2018-04-13T11:10:08.387Z,69.01
2018-04-13T11:12:41.113Z,68.67
2018-04-13T11:15:12.371Z,68.53
2018-04-13T11:17:45.997Z,68.43
2018-04-13T11:20:13.657Z,68.34
2018-04-13T11:22:41.374Z,68.41
2018-04-13T11:25:08.997Z,68.07
2018-04-13T11:27:37.760Z,68.36
2018-04-13T11:30:08.803Z,68.28
2018-04-13T11:32:43.923Z,67.57
2018-04-13T11:35:17.324Z,67.39
2018-04-13T11:37:44.930Z,67.39
2018-04-13T11:40:12.524Z,67.20
2018-04-13T11:42:40.145Z,67.03
2018-04-13T11:45:13.855Z,67.60
2018-04-13T11:47:49.047Z,68.04
2018-04-13T11:50:20.178Z,68.44
2018-04-13T11:52:50.133Z,68.78
2018-04-13T11:55:17.708Z,69.32
2018-04-13T11:57:45.269Z,69.70
2018-04-13T12:00:12.897Z,69.83
2018-04-13T12:02:46.085Z,69.92
2018-04-13T12:05:14.108Z,70.42
2018-04-13T12:07:44.451Z,70.50
2018-04-13T12:10:16.967Z,70.65
2018-04-13T12:12:44.596Z,70.63
2018-04-13T12:15:12.123Z,70.47
2018-04-13T12:17:39.653Z,70.63
2018-04-13T12:20:08.355Z,70.75
2018-04-13T12:22:37.730Z,70.95
2018-04-13T12:25:09.811Z,71.19
2018-04-13T12:27:40.255Z,71.56
2018-04-13T12:30:07.829Z,72.07
2018-04-13T12:32:35.444Z,72.37
2018-04-13T12:35:03.181Z,72.34
2018-04-13T12:37:33.105Z,72.46
2018-04-13T12:40:04.982Z,72.61
2018-04-13T12:42:36.497Z,72.66
2018-04-13T12:45:04.051Z,72.66
2018-04-13T12:47:31.623Z,72.69
2018-04-13T12:49:59.243Z,72.79
2018-04-13T12:52:26.867Z,72.85
2018-04-13T12:55:01.357Z,72.89
2018-04-13T12:57:40.731Z,72.89
2018-04-13T13:00:08.368Z,72.55
2018-04-13T13:02:36.107Z,72.21
2018-04-13T13:05:03.623Z,72.34
2018-04-13T13:07:41.530Z,72.31
2018-04-13T13:10:09.075Z,72.27
2018-04-13T13:12:36.700Z,72.28
2018-04-13T13:15:05.944Z,72.31
2018-04-13T13:17:33.563Z,72.56
2018-04-13T13:20:01.107Z,72.56
2018-04-13T13:22:28.699Z,72.52
2018-04-13T13:24:56.250Z,72.58
2018-04-13T13:27:23.815Z,72.57
2018-04-13T13:30:05.755Z,72.57
2018-04-13T13:32:33.375Z,72.62
2018-04-13T13:37:49.998Z,72.67
2018-04-13T13:40:17.522Z,72.99
2018-04-13T13:42:45.036Z,72.94
2018-04-13T13:45:12.655Z,73.01
2018-04-13T15:01:48.161Z,72.65
2018-04-13T15:04:15.797Z,72.47
2018-04-13T15:06:44.313Z,72.40
2018-04-13T15:09:12.416Z,72.23
2018-04-13T15:11:39.949Z,71.88
2018-04-13T15:17:04.071Z,71.68
2018-04-13T15:22:21.451Z,70.92
2018-04-13T15:24:49.965Z,71.15
2018-04-13T15:27:19.178Z,71.16
2018-04-13T15:40:56.716Z,68.95
2018-04-13T15:43:24.268Z,68.74
2018-04-13T15:45:51.815Z,68.87
2018-04-13T15:54:06.780Z,68.32
2018-04-13T15:56:35.017Z,68.43
2018-04-13T15:59:02.668Z,67.87
2018-04-13T16:01:30.263Z,68.02
2018-04-13T16:03:57.837Z,68.03
2018-04-13T16:14:51.181Z,68.28
2018-04-13T16:17:18.855Z,68.04
2018-04-13T16:19:46.378Z,67.86
2018-04-13T16:22:14.956Z,67.89
2018-04-13T16:24:53.482Z,67.69
2018-04-13T16:30:17.036Z,67.34
2018-04-13T16:32:44.600Z,67.54
2018-04-13T16:35:12.152Z,67.07
2018-04-13T16:37:39.696Z,67.08
2018-04-13T16:40:09.053Z,66.62
2018-04-13T16:42:41.215Z,66.62
2018-04-13T16:45:12.206Z,66.51
2018-04-13T16:47:41.868Z,66.44
2018-04-13T16:50:10.082Z,66.62
2018-04-13T16:52:37.630Z,66.34
2018-04-13T16:55:05.189Z,66.43
2018-04-13T16:57:42.414Z,66.37
2018-04-13T17:02:53.895Z,65.97
2018-04-13T17:05:24.392Z,65.67
2018-04-13T17:07:52.877Z,66.00
2018-04-13T17:10:20.463Z,65.85
2018-04-13T17:12:48.042Z,65.75
2018-04-13T17:15:18.005Z,65.46
2018-04-13T17:17:45.834Z,64.83
2018-04-13T17:20:16.271Z,64.41
2018-04-13T17:22:46.524Z,63.68
2018-04-13T17:25:15.095Z,62.95
2018-04-13T17:27:42.628Z,62.17
2018-04-13T17:30:10.171Z,61.87
2018-04-13T17:32:42.517Z,61.60
2018-04-13T17:35:13.040Z,61.45
2018-04-13T17:37:46.040Z,61.38
2018-04-13T17:40:14.420Z,60.92
2018-04-13T17:42:43.091Z,61.02
2018-04-13T17:45:10.613Z,60.83
2018-04-13T17:47:38.176Z,60.75
2018-04-13T17:50:06.719Z,60.88
2018-04-13T17:52:37.483Z,61.13
2018-04-13T17:55:06.637Z,61.55
2018-04-13T17:57:35.339Z,61.59
2018-04-13T18:00:02.939Z,61.73
2018-04-13T18:02:30.512Z,62.07
2018-04-13T18:04:58.089Z,62.50
2018-04-13T18:07:32.894Z,63.13
2018-04-13T18:10:04.659Z,63.71
2018-04-13T18:12:36.887Z,64.22
2018-04-13T18:15:04.436Z,64.24
2018-04-13T18:17:31.985Z,64.31
2018-04-13T18:19:59.546Z,64.58
2018-04-13T18:22:27.115Z,64.97
2018-04-13T18:32:54.035Z,66.30
2018-04-13T18:35:21.563Z,66.63
2018-04-13T18:37:49.138Z,66.87
2018-04-13T18:40:16.910Z,67.36
2018-04-13T18:48:09.222Z,67.76
2018-04-13T18:50:36.900Z,67.92
2018-04-13T18:53:04.443Z,68.13
2018-04-13T18:55:32.073Z,68.32
2018-04-13T18:58:06.740Z,68.53
2018-04-13T19:00:40.438Z,68.92
2018-04-13T19:03:12.606Z,69.15
2018-04-13T19:05:44.628Z,69.34
2018-04-13T19:08:12.176Z,69.62
2018-04-13T19:10:39.739Z,69.93
2018-04-13T19:13:07.330Z,70.12
2018-04-13T19:15:37.968Z,70.34
2018-04-13T19:18:09.277Z,70.54
2018-04-13T19:20:40.421Z,70.80
2018-04-13T19:23:12.862Z,71.02
2018-04-13T19:25:40.493Z,71.26
2018-04-13T19:28:08.023Z,71.59
2018-04-13T19:30:35.576Z,72.03
2018-04-13T19:33:05.287Z,72.37
2018-04-13T19:35:36.808Z,72.57
2018-04-13T19:38:09.411Z,72.90
2018-04-13T19:40:37.994Z,73.24
2018-04-13T19:43:05.567Z,73.56
2018-04-13T19:45:33.137Z,73.84
2018-04-13T19:48:00.698Z,74.05
2018-04-13T19:50:32.118Z,74.19
2018-04-13T19:53:04.714Z,74.41
2018-04-13T19:58:09.120Z,74.65
2018-04-13T20:00:36.720Z,74.70
2018-04-13T20:03:04.272Z,74.73
2018-04-13T20:05:31.849Z,74.72
2018-04-13T20:10:33.431Z,74.82
2018-04-13T20:13:05.152Z,74.88
2018-04-13T20:15:32.758Z,74.90
2018-04-13T20:18:00.346Z,74.96
2018-04-13T20:20:27.874Z,75.04
2018-04-13T20:22:55.468Z,75.12
2018-04-13T20:25:25.272Z,75.20
2018-04-13T20:27:56.633Z,75.23
2018-04-13T20:30:25.298Z,75.29
2018-04-13T20:32:52.834Z,75.36
2018-04-13T20:35:20.365Z,75.54
2018-04-13T20:37:47.916Z,75.57
2018-04-13T20:40:15.523Z,75.64
2018-04-13T20:42:48.476Z,75.65
2018-04-13T20:45:20.424Z,75.68
2018-04-13T20:47:50.509Z,75.68
2018-04-13T20:50:19.115Z,75.74
2018-04-13T20:52:46.690Z,75.84
2018-04-13T20:55:14.265Z,75.99
2018-04-13T20:57:41.803Z,76.02
2018-04-13T21:00:10.125Z,76.05
2018-04-13T21:02:40.413Z,76.07
2018-04-13T21:05:12.315Z,76.11
2018-04-13T21:07:39.829Z,76.16
2018-04-13T21:10:07.387Z,76.18
2018-04-13T21:12:34.968Z,76.18
2018-04-13T21:15:02.533Z,76.30
2018-04-13T21:17:30.137Z,76.33
2018-04-13T21:20:00.406Z,76.36
2018-04-13T21:22:32.295Z,76.38
2018-04-13T21:25:02.475Z,76.37
2018-04-13T21:27:42.846Z,76.39
2018-04-13T21:30:10.456Z,76.40
2018-04-13T21:32:38.174Z,76.40
2018-04-13T21:35:06.155Z,76.41
2018-04-13T21:37:36.964Z,76.48
2018-04-13T21:40:10.039Z,76.76
2018-04-13T21:42:37.595Z,76.77
2018-04-13T21:45:05.096Z,76.78
2018-04-13T21:47:32.647Z,76.79
2018-04-13T21:50:00.207Z,76.79
2018-04-13T21:52:30.390Z,76.77
2018-04-13T21:54:58.117Z,76.78
2018-04-13T21:57:27.649Z,76.83
2018-04-13T21:59:55.183Z,76.97
2018-04-13T22:02:22.730Z,77.16
2018-04-13T22:04:50.266Z,77.32
2018-04-13T22:07:17.895Z,77.39
2018-04-13T22:09:46.227Z,77.42
2018-04-13T22:12:29.168Z,77.47
2018-04-13T22:15:01.646Z,77.52
2018-04-13T22:17:29.234Z,77.64
2018-04-13T22:19:56.792Z,77.70
2018-04-13T22:22:24.323Z,77.82
2018-04-13T22:24:51.887Z,77.93
2018-04-13T22:27:21.110Z,77.98
2018-04-13T22:29:50.464Z,78.07
2018-04-13T22:32:18.095Z,78.14
2018-04-13T22:34:45.666Z,78.14
2018-04-13T22:37:13.210Z,78.16
2018-04-13T22:39:40.775Z,78.18
2018-04-13T22:42:08.362Z,78.26
2018-04-13T22:44:38.495Z,78.38
2018-04-13T22:47:06.069Z,78.38
2018-04-13T22:49:36.496Z,78.37
2018-04-13T22:52:04.021Z,78.37
2018-04-13T22:54:31.506Z,78.39
2018-04-13T22:56:59.074Z,78.40
2018-04-13T22:59:26.734Z,78.45
2018-04-13T23:01:54.269Z,78.48
2018-04-13T23:04:21.931Z,78.48
2018-04-13T23:06:50.481Z,78.45
2018-04-13T23:09:18.048Z,78.41
2018-04-13T23:11:45.986Z,78.34
2018-04-13T23:14:13.538Z,78.25
2018-04-13T23:16:41.079Z,78.24
2018-04-13T23:19:09.585Z,78.22
2018-04-13T23:21:38.323Z,78.25
2018-04-13T23:24:05.888Z,78.31
2018-04-13T23:26:33.414Z,78.40
2018-04-13T23:29:00.991Z,78.46
2018-04-13T23:31:28.531Z,78.47
2018-04-13T23:33:56.263Z,78.45
2018-04-13T23:36:26.307Z,78.46
2018-04-13T23:38:54.569Z,78.47
2018-04-13T23:41:24.795Z,78.48
2018-04-13T23:43:53.290Z,78.52
2018-04-13T23:46:21.062Z,78.55
2018-04-13T23:48:48.631Z,78.56
2018-04-13T23:51:16.155Z,78.64
2018-04-13T23:53:46.108Z,78.68
2018-04-13T23:56:14.615Z,78.71
2018-04-13T23:58:46.372Z,78.79
